createdAt,value
2022-11-30T00:02:21.463Z,4.80
2022-11-30T00:04:53.387Z,4.80
2022-11-30T00:07:23.091Z,4.90
2022-11-30T00:09:52.776Z,4.90
2022-11-30T00:12:48.153Z,4.90
2022-11-30T00:15:21.344Z,4.80
2022-11-30T00:17:52.284Z,4.90
2022-11-30T00:20:21.956Z,4.80
2022-11-30T00:22:51.887Z,4.90
2022-11-30T00:25:23.346Z,4.80
2022-11-30T00:27:55.751Z,4.80
2022-11-30T00:30:27.207Z,4.80
2022-11-30T00:33:02.515Z,4.80
2022-11-30T00:35:35.423Z,4.80
2022-11-30T00:38:07.215Z,4.80
2022-11-30T00:40:39.627Z,4.80
2022-11-30T00:43:09.515Z,4.80
2022-11-30T00:45:44.260Z,4.80
2022-11-30T00:48:13.703Z,4.80
2022-11-30T00:50:44.727Z,4.80
2022-11-30T00:53:14.275Z,4.90
2022-11-30T00:55:46.308Z,4.80
2022-11-30T00:58:18.186Z,4.90
2022-11-30T01:00:49.696Z,4.80
2022-11-30T01:03:19.672Z,4.80
2022-11-30T01:05:49.606Z,4.80
2022-11-30T01:08:22.176Z,4.70
2022-11-30T01:10:54.052Z,4.70
2022-11-30T01:13:24.452Z,4.70
2022-11-30T01:15:57.348Z,4.70
2022-11-30T01:18:27.631Z,4.70
2022-11-30T01:20:57.885Z,4.70
2022-11-30T01:23:27.727Z,4.70
2022-11-30T01:25:59.919Z,4.60
2022-11-30T01:28:29.459Z,4.60
2022-11-30T01:31:04.361Z,4.60
2022-11-30T01:33:37.090Z,4.60
2022-11-30T01:36:13.107Z,4.60
2022-11-30T01:38:47.664Z,4.50
2022-11-30T01:41:23.469Z,4.50
2022-11-30T01:43:57.280Z,4.50
2022-11-30T01:46:36.073Z,4.50
2022-11-30T01:49:18.533Z,4.40
2022-11-30T01:51:53.720Z,4.50
2022-11-30T01:54:31.759Z,4.50
2022-11-30T01:57:08.922Z,4.50
2022-11-30T01:59:39.244Z,4.50
2022-11-30T02:02:11.789Z,4.50
2022-11-30T02:04:44.604Z,4.50
2022-11-30T02:08:32.793Z,4.50
2022-11-30T02:11:10.647Z,4.50
2022-11-30T02:14:02.709Z,4.60
2022-11-30T02:16:56.660Z,4.50
2022-11-30T02:20:16.838Z,4.60
2022-11-30T02:23:19.265Z,4.60
2022-11-30T02:26:12.249Z,4.50
2022-11-30T02:29:14.594Z,4.50
2022-11-30T02:31:53.004Z,4.50
2022-11-30T02:34:28.828Z,4.60
2022-11-30T02:37:02.704Z,4.50
2022-11-30T02:39:35.771Z,4.50
2022-11-30T02:42:06.095Z,4.50
2022-11-30T02:44:39.365Z,4.50
2022-11-30T02:47:21.463Z,4.50
2022-11-30T02:49:57.831Z,4.50
2022-11-30T02:52:30.596Z,4.50
2022-11-30T02:55:02.911Z,4.50
2022-11-30T02:57:31.865Z,4.50
2022-11-30T03:00:07.057Z,4.50
2022-11-30T03:02:36.124Z,4.50
2022-11-30T03:05:05.533Z,4.50
2022-11-30T03:07:34.822Z,4.50
2022-11-30T03:10:04.008Z,4.50
2022-11-30T03:12:32.933Z,4.50
2022-11-30T03:15:03.205Z,4.50
2022-11-30T03:17:31.980Z,4.50
2022-11-30T03:20:00.815Z,4.50
2022-11-30T03:22:29.524Z,4.50
2022-11-30T03:24:58.253Z,4.50
2022-11-30T03:27:26.975Z,4.50
2022-11-30T03:29:56.230Z,4.50
2022-11-30T03:32:26.535Z,4.50
2022-11-30T03:34:59.201Z,4.50
2022-11-30T03:37:27.921Z,4.50
2022-11-30T03:39:58.494Z,4.50
2022-11-30T03:42:27.447Z,4.50
2022-11-30T03:44:56.240Z,4.50
2022-11-30T03:47:26.464Z,4.50
2022-11-30T03:49:55.117Z,4.40
2022-11-30T03:52:23.925Z,4.50
2022-11-30T03:54:52.673Z,4.50
2022-11-30T03:57:21.537Z,4.50
2022-11-30T03:59:50.287Z,4.50
2022-11-30T04:02:18.973Z,4.50
2022-11-30T04:04:49.418Z,4.40
2022-11-30T04:07:18.285Z,4.40
2022-11-30T04:09:47.119Z,4.40
2022-11-30T04:12:15.876Z,4.40
2022-11-30T04:14:44.998Z,4.40
2022-11-30T04:17:13.918Z,4.30
2022-11-30T04:19:42.671Z,4.30
2022-11-30T04:22:12.826Z,4.40
2022-11-30T04:24:41.610Z,4.40
2022-11-30T04:27:10.369Z,4.40
2022-11-30T04:29:39.019Z,4.30
2022-11-30T04:32:08.128Z,4.30
2022-11-30T04:34:36.750Z,4.30
2022-11-30T04:37:05.485Z,4.30
2022-11-30T04:39:36.753Z,4.30
2022-11-30T04:42:06.079Z,4.30
2022-11-30T04:44:34.807Z,4.40
2022-11-30T04:47:03.607Z,4.40
2022-11-30T04:49:32.293Z,4.30
2022-11-30T04:52:00.990Z,4.40
2022-11-30T04:54:30.337Z,4.30
2022-11-30T04:57:00.524Z,4.30
2022-11-30T04:59:29.298Z,4.30
2022-11-30T05:01:58.064Z,4.30
2022-11-30T05:04:26.933Z,4.30
2022-11-30T05:06:55.799Z,4.40
2022-11-30T05:09:24.553Z,4.40
2022-11-30T05:11:53.353Z,4.40
2022-11-30T05:14:23.438Z,4.40
2022-11-30T05:16:52.263Z,4.40
2022-11-30T05:19:21.137Z,4.40
2022-11-30T05:21:49.950Z,4.40
2022-11-30T05:24:18.882Z,4.30
2022-11-30T05:26:47.566Z,4.30
2022-11-30T05:29:16.420Z,4.30
2022-11-30T05:31:46.609Z,4.30
2022-11-30T05:34:15.723Z,4.30
2022-11-30T05:36:44.603Z,4.30
2022-11-30T05:39:13.308Z,4.30
2022-11-30T05:41:42.140Z,4.30
2022-11-30T05:44:11.066Z,4.30
2022-11-30T05:46:41.184Z,4.30
2022-11-30T05:49:11.484Z,4.30
2022-11-30T05:51:42.328Z,4.40
2022-11-30T05:54:11.305Z,4.40
2022-11-30T05:56:40.034Z,4.30
2022-11-30T05:59:08.799Z,4.30
2022-11-30T06:01:37.539Z,4.30
2022-11-30T06:05:22.557Z,4.30
2022-11-30T06:07:52.901Z,4.20
2022-11-30T06:10:21.719Z,4.20
2022-11-30T06:12:50.418Z,4.10
2022-11-30T06:15:19.327Z,4.20
2022-11-30T06:17:48.067Z,4.30
2022-11-30T06:20:16.956Z,4.30
2022-11-30T06:22:47.967Z,4.40
2022-11-30T06:25:18.237Z,4.50
2022-11-30T06:27:46.964Z,4.50
2022-11-30T06:30:16.788Z,4.40
2022-11-30T06:32:46.811Z,4.40
2022-11-30T06:35:15.846Z,4.40
2022-11-30T06:37:44.663Z,4.40
2022-11-30T06:40:15.063Z,4.40
2022-11-30T06:42:45.258Z,4.40
2022-11-30T06:45:14.121Z,4.40
2022-11-30T06:47:42.958Z,4.50
2022-11-30T06:50:14.218Z,4.40
2022-11-30T06:52:43.154Z,4.40
2022-11-30T06:55:12.228Z,4.40
2022-11-30T06:57:41.194Z,4.50
2022-11-30T07:00:13.432Z,4.60
2022-11-30T07:02:42.167Z,4.70
2022-11-30T07:05:11.556Z,4.60
2022-11-30T07:07:40.254Z,4.70
2022-11-30T07:10:11.683Z,4.80
2022-11-30T07:12:42.529Z,4.90
2022-11-30T07:15:13.362Z,4.80
2022-11-30T07:17:42.170Z,4.80
2022-11-30T07:20:11.698Z,4.60
2022-11-30T07:22:40.523Z,4.50
2022-11-30T07:25:28.154Z,4.50
2022-11-30T07:27:57.035Z,4.50
2022-11-30T07:30:27.213Z,4.50
2022-11-30T07:32:56.118Z,4.60
2022-11-30T07:35:24.891Z,4.60
2022-11-30T07:37:53.642Z,4.60
2022-11-30T07:40:22.368Z,4.60
2022-11-30T07:42:56.695Z,4.50
2022-11-30T07:45:26.903Z,4.50
2022-11-30T07:47:55.706Z,4.60
2022-11-30T07:50:24.349Z,4.60
2022-11-30T07:52:53.125Z,4.60
2022-11-30T07:55:23.931Z,4.60
2022-11-30T07:57:52.721Z,4.60
2022-11-30T08:00:21.695Z,4.60
2022-11-30T08:02:53.532Z,4.60
2022-11-30T08:05:23.682Z,4.60
2022-11-30T08:07:53.513Z,4.70
2022-11-30T08:10:23.314Z,4.70
2022-11-30T08:12:52.316Z,4.70
2022-11-30T08:15:22.379Z,4.70
2022-11-30T08:17:55.305Z,4.70
2022-11-30T08:20:24.430Z,4.70
2022-11-30T08:22:53.190Z,4.70
2022-11-30T08:25:21.990Z,4.70
2022-11-30T08:27:50.717Z,4.60
2022-11-30T08:30:19.709Z,4.60
2022-11-30T08:32:48.409Z,4.60
2022-11-30T08:35:18.867Z,4.70
2022-11-30T08:37:47.711Z,4.60
2022-11-30T08:40:16.768Z,4.70
2022-11-30T08:42:45.623Z,4.70
2022-11-30T08:45:14.407Z,4.70
2022-11-30T08:47:43.330Z,4.70
2022-11-30T08:50:12.785Z,4.70
2022-11-30T08:52:43.023Z,4.80
2022-11-30T08:55:13.151Z,4.80
2022-11-30T08:57:46.412Z,4.90
2022-11-30T09:00:17.701Z,4.90
2022-11-30T09:02:47.803Z,5.00
2022-11-30T09:05:18.379Z,5.00
2022-11-30T09:07:50.259Z,5.00
2022-11-30T09:10:20.821Z,5.00
2022-11-30T09:12:53.396Z,5.00
2022-11-30T09:15:23.566Z,5.00
2022-11-30T09:17:54.380Z,5.00
2022-11-30T09:20:23.356Z,5.00
2022-11-30T09:22:53.596Z,5.20
2022-11-30T09:25:22.311Z,5.20
2022-11-30T09:27:51.101Z,5.30
2022-11-30T09:30:20.249Z,5.30
2022-11-30T09:32:49.096Z,5.30
2022-11-30T09:35:18.009Z,5.30
2022-11-30T09:37:46.725Z,5.40
2022-11-30T09:40:19.661Z,5.40
2022-11-30T09:42:59.083Z,5.50
2022-11-30T09:45:34.632Z,5.50
2022-11-30T09:48:39.760Z,5.50
2022-11-30T09:51:20.101Z,5.60
2022-11-30T09:53:56.476Z,5.70
2022-11-30T09:56:31.951Z,5.70
2022-11-30T09:59:08.484Z,5.50
2022-11-30T10:01:37.877Z,5.60
2022-11-30T10:04:07.033Z,5.60
2022-11-30T10:06:47.609Z,5.50
2022-11-30T10:09:37.855Z,5.40
2022-11-30T10:12:15.756Z,5.40
2022-11-30T10:15:10.640Z,5.40
2022-11-30T10:17:50.929Z,5.50
2022-11-30T10:20:51.424Z,5.60
2022-11-30T10:23:53.819Z,5.60
2022-11-30T10:26:33.547Z,5.50
2022-11-30T10:29:19.542Z,5.60
2022-11-30T10:31:52.751Z,5.70
2022-11-30T10:34:24.915Z,5.80
2022-11-30T10:37:05.275Z,5.70
2022-11-30T10:39:40.415Z,5.60
2022-11-30T10:42:17.645Z,5.50
2022-11-30T10:45:02.897Z,5.60
2022-11-30T10:47:37.513Z,5.60
2022-11-30T10:50:12.531Z,5.60
2022-11-30T10:52:49.256Z,5.60
2022-11-30T10:55:26.763Z,5.60
2022-11-30T10:58:04.695Z,5.70
2022-11-30T11:00:38.943Z,5.70
2022-11-30T11:03:26.539Z,5.70
2022-11-30T11:06:18.682Z,5.70
2022-11-30T11:08:50.764Z,5.90
2022-11-30T11:11:38.937Z,6.00
2022-11-30T11:14:29.722Z,6.00
2022-11-30T11:17:07.654Z,6.00
2022-11-30T11:19:41.964Z,6.00
2022-11-30T11:22:21.223Z,6.00
2022-11-30T11:24:53.619Z,5.90
2022-11-30T11:27:31.280Z,6.00
2022-11-30T11:30:15.426Z,6.00
2022-11-30T11:33:03.288Z,6.00
2022-11-30T11:35:42.886Z,6.00
2022-11-30T11:38:24.161Z,6.00
2022-11-30T11:41:06.422Z,5.90
2022-11-30T11:43:58.111Z,5.90
2022-11-30T11:46:30.304Z,5.90
2022-11-30T11:49:05.830Z,5.80
2022-11-30T12:04:58.061Z,5.80
2022-11-30T12:07:39.102Z,5.70
2022-11-30T12:13:30.440Z,5.70
2022-11-30T12:16:17.424Z,5.70
2022-11-30T12:18:59.179Z,5.70
2022-11-30T12:21:54.120Z,5.50
2022-11-30T12:25:05.744Z,5.50
2022-11-30T12:27:53.858Z,5.50
2022-11-30T12:30:34.516Z,5.50
2022-11-30T12:33:17.078Z,5.50
2022-11-30T12:36:02.835Z,5.40
2022-11-30T12:38:50.295Z,5.40
2022-11-30T12:41:44.281Z,5.30
2022-11-30T12:44:42.663Z,5.20
2022-11-30T12:47:32.571Z,5.10
2022-11-30T12:50:31.185Z,5.10
2022-11-30T12:53:16.833Z,5.10
2022-11-30T12:56:08.313Z,5.10
2022-11-30T12:58:53.238Z,5.10
2022-11-30T13:01:50.063Z,5.00
2022-11-30T13:04:28.726Z,5.10
2022-11-30T13:07:07.845Z,5.20
2022-11-30T13:09:47.734Z,5.10
2022-11-30T13:12:36.546Z,5.00
2022-11-30T13:15:18.667Z,4.90
2022-11-30T13:17:50.129Z,4.80
2022-11-30T13:20:36.110Z,4.80
2022-11-30T13:23:16.958Z,4.70
2022-11-30T13:26:13.761Z,4.70
2022-11-30T13:29:26.805Z,4.60
2022-11-30T13:32:33.848Z,4.50
2022-11-30T13:35:55.258Z,4.50
2022-11-30T13:38:40.782Z,4.50
2022-11-30T13:41:21.884Z,4.50
2022-11-30T13:43:52.005Z,4.40
2022-11-30T13:46:26.568Z,4.40
2022-11-30T13:49:24.592Z,4.30
2022-11-30T13:52:20.889Z,4.20
2022-11-30T13:54:48.057Z,4.20
2022-11-30T13:57:59.145Z,4.10
2022-11-30T14:01:06.067Z,4.10
2022-11-30T14:06:52.782Z,3.80
2022-11-30T14:10:25.584Z,3.60
2022-11-30T14:13:04.878Z,3.60
2022-11-30T14:15:58.800Z,3.40
2022-11-30T14:18:57.942Z,3.40
2022-11-30T14:21:37.134Z,3.30
2022-11-30T14:24:31.645Z,3.30
2022-11-30T14:27:12.125Z,3.10
2022-11-30T14:29:46.784Z,3.00
2022-11-30T14:32:28.762Z,2.90
2022-11-30T14:35:15.774Z,2.80
2022-11-30T14:37:57.518Z,2.80
2022-11-30T14:40:41.558Z,2.80
2022-11-30T14:43:28.293Z,2.80
2022-11-30T14:46:06.545Z,2.80
2022-11-30T14:48:40.045Z,2.60
2022-11-30T14:51:16.170Z,2.40
2022-11-30T14:54:19.960Z,2.40
2022-11-30T14:56:54.519Z,2.30
2022-11-30T14:59:45.125Z,2.10
2022-11-30T15:02:34.345Z,2.00
2022-11-30T15:05:04.018Z,2.00
2022-11-30T15:07:36.951Z,2.00
2022-11-30T15:10:14.810Z,2.10
2022-11-30T15:12:46.025Z,2.10
2022-11-30T15:15:20.827Z,2.20
2022-11-30T15:17:55.343Z,2.20
2022-11-30T15:20:32.346Z,2.20
2022-11-30T15:23:05.476Z,2.10
2022-11-30T15:25:41.123Z,2.00
2022-11-30T15:28:16.101Z,2.00
2022-11-30T15:30:50.474Z,1.90
2022-11-30T15:33:23.328Z,1.90
2022-11-30T15:38:51.621Z,1.70
2022-11-30T15:41:23.750Z,1.70
2022-11-30T15:43:55.712Z,1.70
2022-11-30T15:46:41.253Z,1.70
2022-11-30T15:49:25.416Z,1.70
2022-11-30T15:52:05.765Z,1.70
2022-11-30T15:54:52.762Z,1.70
2022-11-30T15:57:23.443Z,1.80
2022-11-30T16:00:10.500Z,1.80
2022-11-30T16:02:39.924Z,1.80
2022-11-30T16:05:26.995Z,1.70
2022-11-30T16:08:00.113Z,1.80
2022-11-30T16:10:37.328Z,1.80
2022-11-30T16:13:09.056Z,1.80
2022-11-30T16:15:39.557Z,1.80
2022-11-30T16:18:19.212Z,1.70
2022-11-30T16:20:53.386Z,1.70
2022-11-30T16:23:23.176Z,1.70
2022-11-30T16:25:54.016Z,1.70
2022-11-30T16:28:24.581Z,1.70
2022-11-30T16:30:56.007Z,1.80
2022-11-30T16:33:26.815Z,1.80
2022-11-30T16:36:01.582Z,1.80
2022-11-30T16:38:31.051Z,1.90
2022-11-30T16:41:16.526Z,2.00
2022-11-30T16:43:46.507Z,1.90
2022-11-30T16:46:18.548Z,1.90
2022-11-30T16:48:48.962Z,1.90
2022-11-30T16:51:21.645Z,1.90
2022-11-30T16:53:50.992Z,1.80
2022-11-30T16:56:23.871Z,1.80
2022-11-30T16:58:54.905Z,1.80
2022-11-30T17:01:35.717Z,1.90
2022-11-30T17:04:13.949Z,1.90
2022-11-30T17:06:45.739Z,1.90
2022-11-30T17:09:18.586Z,1.90
2022-11-30T17:11:51.632Z,1.90
2022-11-30T17:14:22.194Z,1.90
2022-11-30T17:16:51.146Z,1.90
2022-11-30T17:19:23.422Z,1.90
2022-11-30T17:21:55.698Z,2.00
2022-11-30T17:24:27.309Z,2.00
2022-11-30T17:26:57.640Z,2.00
2022-11-30T17:29:26.714Z,2.00
2022-11-30T17:31:55.606Z,2.00
2022-11-30T17:34:25.758Z,2.00
2022-11-30T17:36:57.724Z,2.00
2022-11-30T17:39:27.307Z,2.00
2022-11-30T17:41:58.773Z,1.90
2022-11-30T17:44:28.314Z,1.90
2022-11-30T17:46:57.579Z,1.90
2022-11-30T17:49:27.048Z,1.90
2022-11-30T17:51:56.693Z,1.90
2022-11-30T17:54:26.180Z,1.90
2022-11-30T17:57:00.447Z,1.90
2022-11-30T17:59:29.934Z,1.90
2022-11-30T18:01:59.407Z,1.80
2022-11-30T18:04:29.444Z,1.80
2022-11-30T18:06:59.246Z,1.80
2022-11-30T18:09:31.508Z,1.80
2022-11-30T18:12:06.586Z,1.80
2022-11-30T18:14:36.199Z,1.70
2022-11-30T18:17:06.222Z,1.80
2022-11-30T18:19:35.715Z,1.80
2022-11-30T18:22:06.987Z,1.70
2022-11-30T18:24:36.353Z,1.70
2022-11-30T18:27:07.096Z,1.70
2022-11-30T18:29:36.307Z,1.70
2022-11-30T18:32:06.383Z,1.80
2022-11-30T18:34:35.705Z,1.80
2022-11-30T18:37:05.167Z,1.80
2022-11-30T18:39:34.412Z,1.80
2022-11-30T18:42:03.814Z,1.80
2022-11-30T18:44:34.957Z,1.80
2022-11-30T18:47:04.268Z,1.90
2022-11-30T18:49:33.951Z,1.90
2022-11-30T18:52:03.304Z,1.80
2022-11-30T18:54:33.723Z,1.80
2022-11-30T18:57:06.413Z,1.70
2022-11-30T18:59:37.583Z,1.70
2022-11-30T19:02:07.170Z,1.70
2022-11-30T19:04:36.629Z,1.70
2022-11-30T19:07:06.104Z,1.80
2022-11-30T19:09:35.746Z,1.80
2022-11-30T19:12:07.365Z,1.70
2022-11-30T19:14:38.129Z,1.70
2022-11-30T19:17:07.466Z,1.80
2022-11-30T19:19:37.109Z,1.80
2022-11-30T19:22:06.763Z,1.80
2022-11-30T19:24:36.562Z,1.80
2022-11-30T19:27:06.095Z,1.80
2022-11-30T19:29:36.982Z,1.70
2022-11-30T19:32:06.979Z,1.80
2022-11-30T19:34:37.457Z,1.80
2022-11-30T19:37:07.195Z,1.80
2022-11-30T19:39:36.708Z,1.80
2022-11-30T19:42:07.714Z,1.80
2022-11-30T19:44:38.873Z,1.80
2022-11-30T19:47:08.448Z,1.80
2022-11-30T19:49:37.817Z,1.80
2022-11-30T19:52:07.581Z,1.90
2022-11-30T19:54:37.306Z,1.90
2022-11-30T19:57:06.674Z,2.00
2022-11-30T19:59:40.083Z,2.00
2022-11-30T20:02:12.418Z,2.10
2022-11-30T20:04:42.259Z,2.10
2022-11-30T20:07:11.829Z,2.10
2022-11-30T20:09:41.416Z,2.10
2022-11-30T20:12:10.805Z,2.20
2022-11-30T20:14:41.603Z,2.20
2022-11-30T20:17:11.130Z,2.10
2022-11-30T20:19:40.323Z,2.00
2022-11-30T20:22:09.974Z,2.00
2022-11-30T20:24:40.896Z,2.00
2022-11-30T20:27:10.541Z,2.00
2022-11-30T20:29:41.393Z,2.00
2022-11-30T20:32:10.996Z,2.00
2022-11-30T20:34:43.744Z,2.10
2022-11-30T20:37:13.913Z,2.00
2022-11-30T20:39:46.118Z,2.00
2022-11-30T20:42:17.889Z,2.00
2022-11-30T20:44:51.233Z,2.00
2022-11-30T20:47:24.308Z,1.90
2022-11-30T20:49:56.847Z,1.90
2022-11-30T20:52:27.477Z,1.90
2022-11-30T20:54:57.823Z,1.90
2022-11-30T20:57:53.276Z,1.90
2022-11-30T21:00:29.122Z,1.80
2022-11-30T21:03:02.360Z,1.90
2022-11-30T21:05:33.819Z,1.80
2022-11-30T21:08:05.366Z,1.80
2022-11-30T21:10:35.090Z,1.80
2022-11-30T21:13:10.101Z,1.80
2022-11-30T21:15:40.907Z,1.80
2022-11-30T21:18:10.089Z,1.80
2022-11-30T21:20:39.333Z,1.80
2022-11-30T21:23:11.263Z,1.80
2022-11-30T21:25:46.381Z,1.80
2022-11-30T21:28:16.053Z,1.80
2022-11-30T21:30:46.869Z,1.70
2022-11-30T21:33:24.125Z,1.70
2022-11-30T21:35:58.805Z,1.80
2022-11-30T21:39:00.872Z,1.70
2022-11-30T21:41:39.643Z,1.80
2022-11-30T21:44:12.739Z,1.80
2022-11-30T21:46:45.594Z,1.80
2022-11-30T21:49:16.288Z,1.80
2022-11-30T21:51:45.552Z,1.80
2022-11-30T21:54:15.477Z,1.80
2022-11-30T21:56:44.928Z,1.80
2022-11-30T21:59:16.109Z,1.70
2022-11-30T22:01:47.905Z,1.70
2022-11-30T22:04:18.052Z,1.70
2022-11-30T22:06:47.332Z,1.60
2022-11-30T22:09:18.461Z,1.60
2022-11-30T22:11:48.036Z,1.60
2022-11-30T22:14:18.756Z,1.60
2022-11-30T22:16:49.620Z,1.60
2022-11-30T22:19:19.168Z,1.70
2022-11-30T22:21:50.431Z,1.60
2022-11-30T22:24:19.838Z,1.60
2022-11-30T22:26:50.221Z,1.50
2022-11-30T22:29:22.819Z,1.50
2022-11-30T22:31:55.677Z,1.50
2022-11-30T22:34:24.824Z,1.50
2022-11-30T22:36:53.820Z,1.60
2022-11-30T22:39:23.544Z,1.60
2022-11-30T22:41:56.041Z,1.60
2022-11-30T22:44:26.942Z,1.60
2022-11-30T22:46:57.603Z,1.60
2022-11-30T22:49:26.928Z,1.70
2022-11-30T22:51:55.855Z,1.60
2022-11-30T22:54:24.682Z,1.60
2022-11-30T22:56:54.302Z,1.70
2022-11-30T22:59:23.257Z,1.70
2022-11-30T23:01:52.056Z,1.80
2022-11-30T23:04:23.865Z,1.80
2022-11-30T23:06:52.897Z,1.80
2022-11-30T23:09:24.292Z,1.80
2022-11-30T23:11:54.089Z,1.80
2022-11-30T23:14:23.072Z,1.80
2022-11-30T23:16:52.110Z,1.70
2022-11-30T23:19:22.562Z,1.70
2022-11-30T23:21:51.729Z,1.50
2022-11-30T23:24:22.249Z,1.50
2022-11-30T23:26:51.791Z,1.50
2022-11-30T23:29:21.088Z,1.40
2022-11-30T23:31:50.689Z,1.30
2022-11-30T23:34:23.136Z,1.30
2022-11-30T23:36:52.876Z,1.30
2022-11-30T23:39:22.208Z,1.20
2022-11-30T23:41:51.295Z,1.30
2022-11-30T23:44:20.707Z,1.30
2022-11-30T23:46:50.111Z,1.20
2022-11-30T23:49:19.196Z,1.30
2022-11-30T23:51:49.527Z,1.30
2022-11-30T23:54:18.793Z,1.20
2022-11-30T23:56:48.736Z,1.20
2022-11-30T23:59:17.798Z,1.20
